Ailinglapalap, Marshall Islands

2:26 AM +12 on August 24, 2019 (GMT +1200)
Ailinglapalap Atoll | | Change Station

Elev 10 ft 7.27 °N, 168.83 °E | Updated 2 hours ago

Rain
Rain
81 °F
Feels Like 81 °F
N
10
Wind Variable Wind from SE
Gusts mph

Today
High -- | Low -- °F
--% Chance of Precip.
Yesterday
High -- | Low -- °F
Precip. -- in
Pressure 29.84 in
Visibility 15.0 miles
Clouds Scattered Clouds 1476 ft
Dew Point 76 °F
Humidity 80%
Rainfall 0.47 in
Snow Depth Not available.
6:37 AM 6:56 PM
Waning Gibbous, 50% visible
AAXX 23124 91367 32474 31309 10272 20243 82100 333 10283 563// 83815 555 92312 91369 32474 30805 10262 20234 30143 40146 82100 333 10306 562// 58000 82815 555 92312 91378 32474 21212 10300 20244 30113 40115 82200 333 10306 562// 58000 82815 555 92312
Pressure 29.84 in
Visibility 15.0 miles
Clouds Scattered Clouds 1476 ft
Dew Point 76 °F
Humidity 80%
Rainfall 0.47 in
Snow Depth Not available.
6:37 AM 6:56 PM
Waning Gibbous, 50% visible
AAXX 23124 91367 32474 31309 10272 20243 82100 333 10283 563// 83815 555 92312 91369 32474 30805 10262 20234 30143 40146 82100 333 10306 562// 58000 82815 555 92312 91378 32474 21212 10300 20244 30113 40115 82200 333 10306 562// 58000 82815 555 92312

Get Severe Weather Alerts

Thanks for signing up!

Be on the lookout for a verification email in your inbox.

You'll start receiving the daily forecast at 6 AM.

×

10-Day Weather Forecast

No radar image for this location.
×

Almanac

Astronomy

Aug. 24, 2019 Rise Set
Actual Time
Civil Twilight
Nautical Twilight
Astronomical Twilight
Moon
Length of Visible Light
Length of Day
Tomorrow will be .
, % of the Moon is Illuminated

Today's Extremes

Country Highs Country Lows

Community

WunderPhotos

Category 6

Welcome to Category 6. This is the collective home for Weather Underground's featured writeups by Dr. Jeff Masters (right), Bob Henson (left), Chris Burt, and other regular contributors.

Nearby

Air Quality

  Air Quality AQ Index Pollutant
Not available.

Snow Depth

Station Depth Elevation

Earthquake Activity

City Distance Mag. Time & Date
Minimum magnitude displayed is 2.5.

Coastal Water Temperatures

Place Temperature

Stations

Nearby Weather Stations

Station Location Temp. Windchill Dew Point Humidity Wind Precip. Elev Updated Type